N208SG VNLK-VNRT
Flight info
| Callsign | N208SG |
|---|---|
| Flight time | 0h 11m |
| Altitude | 12500 |
| Route | DCT |
| Aircraft | C208/L-SBDFGRY/S |
Departure
| Time | 2026-04-22 06:04 |
|---|---|
| Airport | Tenzing-Hillary Airport (VNLK) |
Arrival
| Time | 2026-04-22 06:16 |
|---|---|
| Airport | Rumjatar Airport (VNRT) |
| Time | Latitude | Longitude | Altitude | Speed | Heading |
|---|---|---|---|---|---|
| 2026-04-22 05:54 | 27.68752 | 86.73198 | 9477 ft | 0 kts | 240° |
| 2026-04-22 06:01 | 27.68749 | 86.73193 | 9471 ft | 4 kts | 251° |
| 2026-04-22 06:01 | 27.68775 | 86.73166 | 9470 ft | 6 kts | 353° |
| 2026-04-22 06:02 | 27.68795 | 86.73188 | 9470 ft | 2 kts | 31° |
| 2026-04-22 06:02 | 27.68799 | 86.73180 | 9470 ft | 0 kts | 236° |
| 2026-04-22 06:03 | 27.68728 | 86.73047 | 9426 ft | 53 kts | 240° |
| 2026-04-22 06:03 | 27.68429 | 86.72485 | 9401 ft | 94 kts | 237° |
| 2026-04-22 06:03 | 27.68032 | 86.71820 | 9521 ft | 114 kts | 233° |
| 2026-04-22 06:04 | 27.67409 | 86.71135 | 9684 ft | 135 kts | 207° |
| 2026-04-22 06:04 | 27.66481 | 86.70755 | 9844 ft | 144 kts | 198° |
| 2026-04-22 06:04 | 27.65548 | 86.70401 | 10176 ft | 139 kts | 200° |
| 2026-04-22 06:04 | 27.64596 | 86.70065 | 10393 ft | 148 kts | 199° |
| 2026-04-22 06:05 | 27.63232 | 86.69551 | 10537 ft | 164 kts | 199° |
| 2026-04-22 06:05 | 27.62474 | 86.69267 | 10525 ft | 174 kts | 199° |
| 2026-04-22 06:05 | 27.61323 | 86.68835 | 10541 ft | 177 kts | 197° |
| 2026-04-22 06:05 | 27.60118 | 86.68482 | 10467 ft | 183 kts | 193° |
| 2026-04-22 06:06 | 27.58824 | 86.68269 | 10269 ft | 192 kts | 181° |
| 2026-04-22 06:06 | 27.57514 | 86.68549 | 10245 ft | 193 kts | 161° |
| 2026-04-22 06:06 | 27.56268 | 86.69085 | 10229 ft | 194 kts | 163° |
| 2026-04-22 06:06 | 27.54944 | 86.69379 | 10016 ft | 195 kts | 175° |
| 2026-04-22 06:07 | 27.53588 | 86.69404 | 9899 ft | 193 kts | 182° |
| 2026-04-22 06:07 | 27.52253 | 86.69382 | 9702 ft | 193 kts | 182° |
| 2026-04-22 06:07 | 27.50899 | 86.69347 | 9484 ft | 191 kts | 183° |
| 2026-04-22 06:07 | 27.49609 | 86.69225 | 9301 ft | 186 kts | 187° |
| 2026-04-22 06:08 | 27.48342 | 86.69087 | 9159 ft | 182 kts | 188° |
| 2026-04-22 06:08 | 27.47112 | 86.68752 | 8939 ft | 183 kts | 198° |
| 2026-04-22 06:08 | 27.45909 | 86.68294 | 8792 ft | 184 kts | 198° |
| 2026-04-22 06:08 | 27.44738 | 86.67745 | 8648 ft | 179 kts | 210° |
| 2026-04-22 06:09 | 27.43707 | 86.66972 | 8488 ft | 179 kts | 213° |
| 2026-04-22 06:09 | 27.42651 | 86.66215 | 8392 ft | 181 kts | 213° |
| 2026-04-22 06:09 | 27.41579 | 86.65524 | 8260 ft | 178 kts | 212° |
| 2026-04-22 06:09 | 27.40492 | 86.64813 | 8030 ft | 184 kts | 210° |
| 2026-04-22 06:10 | 27.39350 | 86.64175 | 7813 ft | 182 kts | 205° |
| 2026-04-22 06:10 | 27.38185 | 86.63696 | 7873 ft | 174 kts | 197° |
| 2026-04-22 06:10 | 27.37023 | 86.63344 | 7897 ft | 172 kts | 195° |
| 2026-04-22 06:10 | 27.35865 | 86.63067 | 7885 ft | 167 kts | 192° |
| 2026-04-22 06:11 | 27.34717 | 86.62861 | 7759 ft | 166 kts | 188° |
| 2026-04-22 06:11 | 27.33609 | 86.62663 | 7884 ft | 159 kts | 200° |
| 2026-04-22 06:11 | 27.32665 | 86.62059 | 7928 ft | 162 kts | 221° |
| 2026-04-22 06:11 | 27.32033 | 86.60978 | 7669 ft | 175 kts | 254° |
| 2026-04-22 06:12 | 27.32032 | 86.59574 | 7398 ft | 180 kts | 274° |
| 2026-04-22 06:12 | 27.32110 | 86.58228 | 7421 ft | 170 kts | 269° |
| 2026-04-22 06:12 | 27.32053 | 86.56925 | 7230 ft | 163 kts | 262° |
| 2026-04-22 06:12 | 27.31864 | 86.55732 | 7013 ft | 150 kts | 256° |
| 2026-04-22 06:13 | 27.31524 | 86.54636 | 6699 ft | 149 kts | 246° |
| 2026-04-22 06:13 | 27.31029 | 86.53644 | 6407 ft | 141 kts | 232° |
| 2026-04-22 06:13 | 27.30239 | 86.52949 | 5870 ft | 149 kts | 201° |
| 2026-04-22 06:13 | 27.29264 | 86.53038 | 5487 ft | 140 kts | 165° |
| 2026-04-22 06:14 | 27.28421 | 86.53361 | 5344 ft | 123 kts | 162° |
| 2026-04-22 06:14 | 27.27620 | 86.53535 | 5031 ft | 115 kts | 166° |
| 2026-04-22 06:14 | 27.27256 | 86.54206 | 4836 ft | 113 kts | 84° |
| 2026-04-22 06:14 | 27.27735 | 86.54817 | 4784 ft | 102 kts | 37° |
| 2026-04-22 06:15 | 27.28281 | 86.55271 | 4734 ft | 94 kts | 28° |
| 2026-04-22 06:15 | 27.28913 | 86.55345 | 4601 ft | 92 kts | 337° |
| 2026-04-22 06:15 | 27.29519 | 86.55226 | 4493 ft | 85 kts | 349° |
| 2026-04-22 06:15 | 27.30090 | 86.55139 | 4480 ft | 80 kts | 348° |
| 2026-04-22 06:16 | 27.30436 | 86.55082 | 4536 ft | 6 kts | 347° |
| 2026-04-22 06:16 | 27.30446 | 86.55080 | 4538 ft | 1 kts | 352° |
| 2026-04-22 06:16 | 27.30452 | 86.55081 | 4537 ft | 2 kts | 32° |
| 2026-04-22 06:16 | 27.30440 | 86.55082 | 4537 ft | 14 kts | 162° |
| 2026-04-22 06:17 | 27.30342 | 86.55093 | 4520 ft | 10 kts | 220° |
| 2026-04-22 06:17 | 27.30314 | 86.55062 | 4515 ft | 4 kts | 313° |
| 2026-04-22 06:17 | 27.30318 | 86.55060 | 4515 ft | 0 kts | 340° |